Главная страница
METAR-TAF:

METAR-TAF

Аэропорты :

Chautauqua County/Dunkirk Airport

Dunkirk, Нью-Йорк, США

широта: 42-29-35N, долгота: 079-16-33W, высота над уровнем моря: 211 м

Текущие метеонаблюдения

Эта сводка был подготовлена 18 минут назад, в 06:35 UTC
Ветер 17 Узел от юго-западный с порывами до 24 Узел
Температура 10°C
Влажность 66%
Давление 1005 hPa
Видимость: 16.1 км
Сплошная облачность на высоте 2800 фута

METAR: KDKK 200635Z AUTO 23017G24KT 10SM OVC028 10/04 A2969 RMK AO2 PK WND 20029/0623 T01000044

Время: 02:53 (06:53 UTC)


TAF: отсутствует

Метеонаблюдения и прогнозы для более 4000 аэропортов (сводки METAR и TAF).

Имеющиеся станции представлены на карте желтыми и красными точками.

Чтобы увидеть название станции, наведите на нее мышь.

Затем щелкните, чтобы увидеть метеонаблюдения и метеопрогнозы.

Управление картой: чтобы увеличить масштаб, щелкните зеленые кнопки с черным крестиком; чтобы уменьшить масштаб, щелкните зеленую кнопку с тире; для просмотра соседних карт щелкайте зеленые стрелки.


METAR-TAF: